Riverton, WY (82501)

8:24 PM MDT on July 25, 2016 (GMT -0600)
Riverton Regional | | Change Station
Active Advisory: Special Statement, Fire Weather Warning Active Notice: Record Report

Elev 5525 ft 43.06 °N, 108.46 °W | Updated 31 minutes ago

Clear
Clear
87 °F
Feels Like 87 °F
N
5
Wind Variable Wind from North
Gusts 18 mph

Today
High -- | Low -- °F
--% Chance of Precip.
Yesterday
High -- | Low -- °F
Precip. -- in
Pressure 29.86 in
Visibility 10.0 miles
Clouds Clear
Dew Point 24 °F
Humidity 10%
Rainfall 0.00 in
Snow Depth Not available.
5:57 AM 8:42 PM
Waning Gibbous, 60% visible
METAR KRIW 260153Z AUTO 01004G16KT 10SM CLR 31/M04 A3008 RMK AO2 SLP110 T03061044
Pressure 29.86 in
Visibility 10.0 miles
Clouds Clear
Dew Point 24 °F
Humidity 10%
Rainfall 0.00 in
Snow Depth Not available.
5:57 AM 8:42 PM
Waning Gibbous, 60% visible
METAR KRIW 260153Z AUTO 01004G16KT 10SM CLR 31/M04 A3008 RMK AO2 SLP110 T03061044

10-Day Weather Forecast

Almanac

Astronomy

Jul. 25, 2016 Rise Set
Actual Time
Civil Twilight
Nautical Twilight
Astronomical Twilight
Moon
Length of Visible Light
Length of Day
Tomorrow will be .
, % of the Moon is Illuminated

Today's Extremes

State Highs State Lows

Community

WunderPhotos

Upload Photos

1,927,503 photos uploaded!

WunderBlog® & News

Nearby

Air Quality

  Air Quality AQ Index Pollutant
Not available.

Snow Depth

Station Depth Elevation

Earthquake Activity

City Distance Mag. Time & Date
Minimum magnitude displayed is 2.5.

Coastal Water Temperatures

Place Temperature

Stations

Nearby Weather Stations

Station Location Temp. Windchill Dew Point Humidity Wind Precip. Elev Updated Type
                   

Watches & Warnings

Special Statement
Issued: 7:22 PM MDT Jul. 25, 2016 – National Weather Service

Weak rain showers will move across the basin through 830 PM.
Sudden wind gusts of 35 to 45 mph may occur near these showers.
Rainfall will be brief and light.


722 PM MDT Mon Jul 25 2016

Weak rain showers will move across the basin through 830 PM.
Sudden wind gusts of 35 to 45 mph may occur near these showers.
Rainfall will be brief and light.



Fire Weather Warning
Issued: 11:32 AM MDT Jul. 25, 2016 – National Weather Service

... Red flag warning remains in effect until 9 PM MDT this evening
for warm temperatures... low humidity... gusty wind and high Haines
index of 6 for fire weather zones 283 and 288...

* wind... west to northwest 15 to 20 mph with gusts to 30 mph.

* Humidity... 6 to 11 percent.

* Haines index... 6.

* Impacts... any fires that develop will likely spread rapidly.
Outdoor burning is not recommended.

Precautionary/preparedness actions...

A red flag warning means that critical fire weather conditions
are either occurring now... .or will shortly. A combination of
strong winds... low relative humidity... and warm temperatures can
contribute to extreme fire behavior.